Lodi, New York
Current Conditions -  °F | °C
As of 6:53 PM on Sunday 23 Nov 2014 (Local Time) from KPEO Reporting Station
Clear Clear  
Wind Chill: 43°   Ceiling: Unl
Heat Index: 48°   Visibility: 10mi
Dew Point: 34°   Wind: 10mph
Humidity: 58%   Direction: 150°SSE
Pressure: 29.9"   Gusts: NA
Location:  42.61°N, 76.82°W
Report Text: KPEO 232353Z AUTO 15009KT 10SM CLR 09/01 A2990 RMK AO2 SLP127 60000 T00890011 10100 20067 56030
Loading
Personal Weather Stations






























Interactive Weather Map New forecast layout! Learn more

10-Day Weather Forecast

Advertisements
Track Severe Weather on mobile